ADDS METAR Data INFO
IDs: Format: Raw Decoded Include TAF

Data at: 1746 UTC 21 Oct 2017

KODX 211653Z AUTO 33026G38KT 10SM OVC060 12/04 A2976 RMK AO2 PK WND 31039/1642 PRESRR SLP074 T01220039
KODX 211553Z AUTO 32022G39KT 10SM OVC048 12/04 A2970 RMK AO2 PK WND 33039/1544 SLP053 T01220044
KODX 211453Z AUTO 33026G36KT 10SM OVC039 14/07 A2965 RMK AO2 PK WND 32036/1452 SLP033 T01440072 53045
KODX 211435Z AUTO 33016G24KT 10SM SCT028 OVC035 14/08 A2963 RMK AO2 PK WND 33029/1417 PRESRR T01440083
KODX 211406Z AUTO 34017G23KT 10SM FEW014 BKN024 OVC046 15/10 A2957 RMK AO2 PK WND 34026/1356 PRESRR T01500100
KODX 211353Z AUTO 10SM FEW014 BKN034 OVC055 15/14 A2955 RMK AO2 SLP002 T01500144
KODX 211253Z AUTO 00000KT 10SM FEW019 FEW042 15/14 A2951 RMK AO2 SLP984 T01500139
KODX 211241Z AUTO 18003KT 10SM FEW019 FEW042 17/15 A2950 RMK AO2 T01670150
KODX 211153Z AUTO 04003KT 10SM OVC021 17/15 A2950 RMK AO2 SLP983 T01670150 10189 20167 53014
KODX 211131Z AUTO 18005KT 10SM BKN023 17/15 A2950 RMK AO2 T01670150
KODX 211053Z AUTO 21004KT 10SM CLR 17/16 A2949 RMK AO2 SLP975 T01720156
KODX 210953Z AUTO 18012G20KT 10SM CLR 18/16 A2945 RMK AO2 SLP961 T01830156
KODX 210853Z AUTO 17012KT 10SM CLR 19/15 A2946 RMK AO2 SLP965 T01890150 58016
KODX 210753Z AUTO 17012G19KT 10SM CLR 18/15 A2948 RMK AO2 SLP972 T01830150
KODX 210653Z AUTO 16009G17KT 10SM CLR 18/15 A2950 RMK AO2 SLP979 T01830150
KODX 210553Z AUTO 16013G20KT 10SM CLR 18/14 A2951 RMK AO2 PK WND 17026/0458 SLP983 T01830144 10222 20183 402440122 56010
KODX 210453Z AUTO 17016G25KT 10SM CLR 19/14 A2952 RMK AO2 PK WND 16030/0427 SLP989 T01890144
KODX 210353Z AUTO 17015G27KT 10SM CLR 19/14 A2953 RMK AO2 PK WND 16029/0303 SLP991 T01940144
KODX 210253Z AUTO 17015G29KT 10SM CLR 20/14 A2954 RMK AO2 PK WND 17031/0201 SLP997 T02000139 51001
KODX 210153Z AUTO 17018G30KT 10SM CLR 21/14 A2954 RMK AO2 PK WND 16030/0145 SLP997 T02060139
KODX 210053Z AUTO 17017G27KT 10SM CLR 21/13 A2954 RMK AO2 PK WND 17030/0025 SLP998 T02110133
KODX 202353Z AUTO 17016G28KT 10SM CLR 22/13 A2954 RMK AO2 PK WND 17033/2300 SLP996 T02220133 10244 20211 55010
KODX 202253Z AUTO 17014G28KT 10SM CLR 23/13 A2953 RMK AO2 PK WND 18033/2159 SLP994 T02280128
KODX 202153Z AUTO 18019G35KT 10SM SCT055 24/12 A2956 RMK AO2 PK WND 18038/2131 SLP000 T02390122
KODX 202053Z AUTO 19025G37KT 10SM FEW049 24/12 A2957 RMK AO2 PK WND 17038/2006 SLP006 T02390122 56033
KODX 201953Z AUTO 17020G35KT 10SM CLR 23/12 A2958 RMK AO2 PK WND 16035/1948 SLP009 T02330122
KODX 201853Z AUTO 16020G31KT 10SM FEW120 23/12 A2961 RMK AO2 PK WND 16031/1845 PRESFR SLP018 T02280122
KODX 201753Z AUTO 16014G27KT 10SM CLR 21/12 A2967 RMK AO2 PK WND 18028/1736 SLP041 T02110122 10211 20128
KODX 201653Z AUTO 17018G28KT 10SM CLR 19/11 A2972 RMK AO2 PK WND 19028/1649 SLP056 T01940111
KODX 201553Z AUTO 18018G26KT 10SM 18/11 A2975 RMK AO2 PK WND 20026/1553 SLP069 T01780106 $
KODX 201453Z AUTO 18014G22KT 10SM CLR 16/10 A2978 RMK AO2 SLP078 T01610100 58008
KODX 201353Z AUTO 18012KT 10SM CLR 14/09 A2979 RMK AO2 SLP083 T01390094
KODX 201253Z AUTO 17011KT 10SM CLR 13/09 A2979 RMK AO2 SLP083 T01280089
KODX 201153Z AUTO 17010KT 10SM CLR 13/09 A2980 RMK AO2 SLP086 T01280089 10156 20122 56013
KODX 201053Z AUTO 16007KT 10SM CLR 13/08 A2981 RMK AO2 SLP089 T01280083
KODX 200953Z AUTO 16007KT 10SM CLR 13/08 A2982 RMK AO2 SLP090 T01330083
KODX 200853Z AUTO 17008KT 10SM CLR 13/08 A2984 RMK AO2 SLP098 T01280078 58013
KODX 200753Z AUTO 18010KT 10SM CLR 14/08 A2986 RMK AO2 SLP104 T01390078
KODX 200653Z AUTO 18008KT 10SM CLR 15/07 A2987 RMK AO2 SLP109 T01500072
KODX 200553Z AUTO 19009KT 10SM CLR 16/07 A2988 RMK AO2 SLP113 T01560072 10222 20156 402671006 58002